createdAt,value
2023-05-11T00:02:31.048Z,100648.16
2023-05-11T00:05:04.016Z,100653.56
2023-05-11T00:07:36.972Z,100654.59
2023-05-11T00:10:12.094Z,100645.91
2023-05-11T00:12:44.919Z,100649.56
2023-05-11T00:15:17.841Z,100639.94
2023-05-11T00:17:50.961Z,100643.63
2023-05-11T00:20:23.937Z,100645.47
2023-05-11T00:22:56.787Z,100643.91
2023-05-11T00:25:31.320Z,100644.88
2023-05-11T00:28:04.253Z,100646.88
2023-05-11T00:30:37.146Z,100648.81
2023-05-11T00:33:10.234Z,100640.91
2023-05-11T00:35:43.966Z,100648.22
2023-05-11T00:38:16.969Z,100648.28
2023-05-11T00:40:51.445Z,100636.03
2023-05-11T00:43:24.253Z,100637.09
2023-05-11T00:45:57.254Z,100640.81
2023-05-11T00:48:30.233Z,100644.50
2023-05-11T00:51:04.761Z,100638.41
2023-05-11T00:53:37.965Z,100634.94
2023-05-11T00:56:13.105Z,100635.13
2023-05-11T00:58:46.003Z,100639.72
2023-05-11T01:01:19.134Z,100632.69
2023-05-11T01:03:55.311Z,100631.94
2023-05-11T01:06:33.129Z,100633.00
2023-05-11T01:09:10.898Z,100630.47
2023-05-11T01:11:52.232Z,100635.84
2023-05-11T01:14:31.229Z,100628.03
2023-05-11T01:17:13.365Z,100627.31
2023-05-11T01:19:53.984Z,100631.94
2023-05-11T01:22:39.437Z,100634.72
2023-05-11T01:25:25.644Z,100636.63
2023-05-11T01:28:16.492Z,100629.50
2023-05-11T01:30:53.013Z,100632.38
2023-05-11T01:33:32.276Z,100638.72
2023-05-11T01:36:10.053Z,100637.94
2023-05-11T01:38:47.647Z,100631.84
2023-05-11T01:41:23.488Z,100636.38
2023-05-11T01:44:01.610Z,100633.81
2023-05-11T01:46:36.770Z,100624.09
2023-05-11T01:49:11.764Z,100631.28
2023-05-11T01:51:49.512Z,100629.72
2023-05-11T01:54:26.159Z,100630.69
2023-05-11T01:57:01.518Z,100636.19
2023-05-11T01:59:36.954Z,100630.00
2023-05-11T02:02:12.447Z,100628.22
2023-05-11T02:04:47.010Z,100636.22
2023-05-11T02:07:21.445Z,100631.00
2023-05-11T02:09:57.670Z,100633.72
2023-05-11T02:12:33.738Z,100624.97
2023-05-11T02:15:09.679Z,100636.47
2023-05-11T02:17:44.972Z,100633.88
2023-05-11T02:20:19.716Z,100634.81
2023-05-11T02:22:54.625Z,100630.41
2023-05-11T02:25:29.775Z,100630.44
2023-05-11T02:28:02.944Z,100626.03
2023-05-11T02:30:45.768Z,100633.22
2023-05-11T02:33:23.021Z,100629.75
2023-05-11T02:35:57.635Z,100628.94
2023-05-11T02:38:35.720Z,100631.63
2023-05-11T02:41:17.059Z,100631.69
2023-05-11T02:43:53.222Z,100629.94
2023-05-11T02:46:30.889Z,100631.84
2023-05-11T02:49:08.815Z,100631.00
2023-05-11T02:51:45.939Z,100621.22
2023-05-11T02:54:20.692Z,100626.63
2023-05-11T02:56:57.353Z,100625.75
2023-05-11T02:59:32.004Z,100636.41
2023-05-11T03:02:05.229Z,100633.75
2023-05-11T03:04:39.798Z,100639.16
2023-05-11T03:07:12.700Z,100630.22
2023-05-11T03:09:45.813Z,100632.03
2023-05-11T03:12:18.985Z,100642.69
2023-05-11T03:14:53.423Z,100637.47
2023-05-11T03:17:26.738Z,100639.25
2023-05-11T03:20:03.712Z,100636.66
2023-05-11T03:22:38.493Z,100641.03
2023-05-11T03:25:13.216Z,100639.22
2023-05-11T03:27:47.394Z,100643.66
2023-05-11T03:30:23.777Z,100642.69
2023-05-11T03:32:59.865Z,100645.25
2023-05-11T03:35:36.009Z,100646.09
2023-05-11T03:38:11.730Z,100637.25
2023-05-11T03:40:45.957Z,100652.19
2023-05-11T03:43:20.362Z,100653.00
2023-05-11T03:45:55.106Z,100644.91
2023-05-11T03:48:29.750Z,100650.88
2023-05-11T03:51:06.212Z,100648.94
2023-05-11T03:53:39.559Z,100650.59
2023-05-11T03:56:12.447Z,100654.81
2023-05-11T03:58:45.901Z,100652.81
2023-05-11T04:01:18.932Z,100660.59
2023-05-11T04:03:54.598Z,100659.53
2023-05-11T04:06:31.497Z,100654.84
2023-05-11T04:09:14.856Z,100670.53
2023-05-11T04:11:47.717Z,100660.56
2023-05-11T04:14:20.693Z,100659.47
2023-05-11T04:16:53.987Z,100661.00
2023-05-11T04:19:26.797Z,100664.31
2023-05-11T04:22:02.398Z,100656.84
2023-05-11T04:24:36.386Z,100661.03
2023-05-11T04:27:09.363Z,100662.44
2023-05-11T04:29:45.040Z,100660.69
2023-05-11T04:32:17.908Z,100665.03
2023-05-11T04:34:51.016Z,100658.41
2023-05-11T04:37:29.330Z,100658.94
2023-05-11T04:40:04.250Z,100663.78
2023-05-11T04:42:41.961Z,100656.31
2023-05-11T04:45:20.192Z,100663.81
2023-05-11T04:47:53.174Z,100665.16
2023-05-11T04:50:26.281Z,100675.38
2023-05-11T04:53:01.050Z,100667.78
2023-05-11T04:55:34.201Z,100671.03
2023-05-11T04:58:07.116Z,100674.09
2023-05-11T05:00:40.056Z,100668.34
2023-05-11T05:03:12.995Z,100675.03
2023-05-11T05:05:45.858Z,100667.41
2023-05-11T05:08:21.547Z,100672.09
2023-05-11T05:10:54.884Z,100679.41
2023-05-11T05:13:27.872Z,100676.13
2023-05-11T05:16:00.735Z,100673.72
2023-05-11T05:18:33.871Z,100674.78
2023-05-11T05:21:07.085Z,100675.91
2023-05-11T05:23:41.324Z,100677.81
2023-05-11T05:26:14.384Z,100677.88
2023-05-11T05:28:47.307Z,100678.78
2023-05-11T05:31:20.895Z,100675.47
2023-05-11T05:33:53.818Z,100679.22
2023-05-11T05:36:26.675Z,100684.59
2023-05-11T05:39:00.930Z,100682.94
2023-05-11T05:41:33.779Z,100689.22
2023-05-11T05:44:07.349Z,100682.28
2023-05-11T05:46:40.564Z,100695.13
2023-05-11T05:49:13.526Z,100688.22
2023-05-11T05:51:46.444Z,100681.22
2023-05-11T05:54:20.654Z,100686.09
2023-05-11T05:56:53.653Z,100690.63
2023-05-11T05:59:27.295Z,100684.38
2023-05-11T06:02:02.972Z,100686.38
2023-05-11T06:04:36.487Z,100685.00
2023-05-11T06:07:09.620Z,100679.63
2023-05-11T06:09:43.860Z,100679.78
2023-05-11T06:12:16.743Z,100688.75
2023-05-11T06:14:54.458Z,100686.03
2023-05-11T06:17:28.546Z,100680.56
2023-05-11T06:20:01.499Z,100689.53
2023-05-11T06:22:37.118Z,100688.69
2023-05-11T06:25:12.280Z,100697.97
2023-05-11T06:27:46.427Z,100691.06
2023-05-11T06:30:19.993Z,100700.28
2023-05-11T06:32:54.962Z,100685.56
2023-05-11T06:35:28.092Z,100690.19
2023-05-11T06:38:00.981Z,100689.38
2023-05-11T06:40:35.611Z,100679.34
2023-05-11T06:43:08.677Z,100679.22
2023-05-11T06:45:51.425Z,100684.56
2023-05-11T06:48:25.929Z,100677.50
2023-05-11T06:50:58.863Z,100675.03
2023-05-11T06:53:31.747Z,100675.16
2023-05-11T06:56:06.824Z,100681.69
2023-05-11T06:58:39.814Z,100682.78
2023-05-11T07:01:13.066Z,100672.97
2023-05-11T07:03:48.865Z,100675.38
2023-05-11T07:06:21.874Z,100676.00
2023-05-11T07:08:54.840Z,100681.63
2023-05-11T07:11:29.174Z,100675.16
2023-05-11T07:14:02.055Z,100675.25
2023-05-11T07:16:38.019Z,100666.69
2023-05-11T07:19:11.094Z,100678.44
2023-05-11T07:21:44.283Z,100673.44
2023-05-11T07:24:17.256Z,100672.03
2023-05-11T07:26:51.991Z,100665.94
2023-05-11T07:29:24.946Z,100668.72
2023-05-11T07:31:58.033Z,100676.88
2023-05-11T07:34:31.011Z,100672.06
2023-05-11T07:37:04.087Z,100678.03
2023-05-11T07:39:37.034Z,100678.72
2023-05-11T07:42:11.396Z,100672.47
2023-05-11T07:44:44.297Z,100672.88
2023-05-11T07:47:19.016Z,100677.69
2023-05-11T07:49:51.979Z,100687.03
2023-05-11T07:52:24.835Z,100682.25
2023-05-11T07:54:59.663Z,100683.00
2023-05-11T07:57:33.913Z,100676.97
2023-05-11T08:00:10.917Z,100685.16
2023-05-11T08:02:47.126Z,100695.25
2023-05-11T08:05:21.258Z,100685.28
2023-05-11T08:07:54.300Z,100685.28
2023-05-11T08:10:27.193Z,100675.75
2023-05-11T08:13:01.407Z,100679.06
2023-05-11T08:15:34.817Z,100683.84
2023-05-11T08:18:07.883Z,100670.19
2023-05-11T08:20:42.197Z,100682.88
2023-05-11T08:23:18.074Z,100675.31
2023-05-11T08:25:52.568Z,100663.81
2023-05-11T08:28:26.819Z,100655.72
2023-05-11T08:31:00.576Z,100671.91
2023-05-11T08:33:38.156Z,100665.41
2023-05-11T08:36:13.273Z,100655.47
2023-05-11T08:38:46.247Z,100660.81
2023-05-11T08:41:19.211Z,100654.09
2023-05-11T08:43:53.911Z,100657.72
2023-05-11T08:46:31.822Z,100651.38
2023-05-11T08:49:04.739Z,100667.31
2023-05-11T08:51:37.662Z,100655.13
2023-05-11T08:54:10.657Z,100649.13
2023-05-11T08:56:44.719Z,100671.28
2023-05-11T08:59:19.814Z,100656.69
2023-05-11T09:01:53.903Z,100664.38
2023-05-11T09:04:27.748Z,100659.47
2023-05-11T09:07:01.219Z,100666.16
2023-05-11T09:09:34.928Z,100652.53
2023-05-11T09:12:09.357Z,100657.28
2023-05-11T09:14:43.939Z,100652.03
2023-05-11T09:17:17.185Z,100673.38
2023-05-11T09:20:05.499Z,100663.44
2023-05-11T09:22:43.272Z,100661.16
2023-05-11T09:25:17.994Z,100672.47
2023-05-11T09:27:51.448Z,100668.56
2023-05-11T09:30:25.995Z,100657.78
2023-05-11T09:33:00.580Z,100657.00
2023-05-11T09:35:35.601Z,100661.97
2023-05-11T09:38:10.598Z,100656.63
2023-05-11T09:40:52.196Z,100663.22
2023-05-11T09:43:26.981Z,100662.53
2023-05-11T09:46:04.182Z,100648.91
2023-05-11T09:48:37.766Z,100652.09
2023-05-11T09:51:10.793Z,100654.63
2023-05-11T09:53:46.024Z,100643.22
2023-05-11T09:56:19.448Z,100642.16
2023-05-11T09:58:54.446Z,100644.84
2023-05-11T10:01:33.445Z,100643.81
2023-05-11T10:04:22.194Z,100638.00
2023-05-11T10:06:57.049Z,100638.13
2023-05-11T10:09:29.959Z,100654.25
2023-05-11T10:12:04.175Z,100644.38
2023-05-11T10:14:37.284Z,100633.13
2023-05-11T10:17:12.623Z,100613.13
2023-05-11T10:19:45.828Z,100634.13
2023-05-11T10:22:19.628Z,100625.84
2023-05-11T10:24:53.083Z,100621.66
2023-05-11T10:27:26.664Z,100625.28
2023-05-11T10:30:00.283Z,100615.00
2023-05-11T10:32:38.024Z,100604.06
2023-05-11T10:35:11.323Z,100604.56
2023-05-11T10:37:44.379Z,100621.91
2023-05-11T10:40:17.798Z,100614.78
2023-05-11T10:43:24.333Z,100601.66
2023-05-11T10:46:09.811Z,100598.69
2023-05-11T10:49:11.114Z,100596.25
2023-05-11T10:52:13.094Z,100591.28
2023-05-11T10:55:23.077Z,100585.31
2023-05-11T10:58:07.554Z,100584.59
2023-05-11T11:01:16.513Z,100580.16
2023-05-11T11:04:02.997Z,100585.06
2023-05-11T11:06:37.433Z,100581.44
2023-05-11T11:09:13.378Z,100585.94
2023-05-11T11:11:48.148Z,100580.78
2023-05-11T11:14:21.110Z,100583.16
2023-05-11T11:17:27.290Z,100580.41
2023-05-11T11:20:02.416Z,100571.19
2023-05-11T11:22:49.489Z,100574.47
2023-05-11T11:25:54.800Z,100581.97
2023-05-11T11:28:28.172Z,100593.53
2023-05-11T11:31:26.725Z,100575.69
2023-05-11T11:34:20.493Z,100579.41
2023-05-11T11:37:05.271Z,100572.50
2023-05-11T11:40:00.322Z,100584.06
2023-05-11T11:42:41.700Z,100580.38
2023-05-11T11:45:32.391Z,100571.78
2023-05-11T11:48:16.423Z,100577.66
2023-05-11T11:50:50.192Z,100579.28
2023-05-11T11:54:08.952Z,100577.34
2023-05-11T11:56:47.172Z,100569.72
2023-05-11T11:59:20.190Z,100572.19
2023-05-11T12:01:56.306Z,100573.75
2023-05-11T12:04:42.039Z,100570.31
2023-05-11T12:07:17.060Z,100571.69
2023-05-11T12:09:52.902Z,100571.47
2023-05-11T12:12:28.200Z,100574.78
2023-05-11T12:15:02.426Z,100577.59
2023-05-11T12:17:39.932Z,100572.81
2023-05-11T12:20:15.025Z,100572.28
2023-05-11T12:22:49.325Z,100572.59
2023-05-11T12:25:22.856Z,100563.31
2023-05-11T12:28:01.126Z,100566.09
2023-05-11T12:30:35.410Z,100564.25
2023-05-11T12:33:09.398Z,100558.41
2023-05-11T12:35:44.935Z,100560.88
2023-05-11T12:38:17.800Z,100557.84
2023-05-11T12:40:52.758Z,100549.69
2023-05-11T12:43:27.109Z,100551.16
2023-05-11T12:46:00.205Z,100547.41
2023-05-11T12:48:33.262Z,100558.47
2023-05-11T12:51:06.278Z,100549.75
2023-05-11T12:53:42.083Z,100539.72
2023-05-11T12:56:14.900Z,100554.47
2023-05-11T12:58:49.328Z,100545.19
2023-05-11T13:01:26.335Z,100542.31
2023-05-11T13:03:59.496Z,100552.75
2023-05-11T13:06:33.396Z,100546.31
2023-05-11T13:09:06.359Z,100544.97
2023-05-11T13:11:39.294Z,100540.09
2023-05-11T13:14:18.204Z,100540.22
2023-05-11T13:16:54.844Z,100532.94
2023-05-11T13:19:29.779Z,100539.53
2023-05-11T13:22:02.687Z,100516.75
2023-05-11T13:24:35.610Z,100528.91
2023-05-11T13:27:08.439Z,100539.06
2023-05-11T13:29:42.746Z,100525.03
2023-05-11T13:32:15.764Z,100521.59
2023-05-11T13:34:48.765Z,100521.16
2023-05-11T13:37:22.011Z,100525.16
2023-05-11T13:39:56.619Z,100521.13
2023-05-11T13:42:54.658Z,100522.25
2023-05-11T13:45:39.230Z,100528.53
2023-05-11T13:48:12.291Z,100527.66
2023-05-11T13:50:47.680Z,100508.78
2023-05-11T13:53:22.617Z,100526.81
2023-05-11T13:55:57.865Z,100508.19
2023-05-11T13:58:35.291Z,100509.59
2023-05-11T14:01:09.637Z,100510.59
2023-05-11T14:03:42.659Z,100513.31
2023-05-11T14:06:18.469Z,100520.75
2023-05-11T14:08:53.770Z,100513.84
2023-05-11T14:11:26.804Z,100504.97
2023-05-11T14:13:59.654Z,100505.25
2023-05-11T14:16:33.867Z,100510.50
2023-05-11T14:19:12.815Z,100511.63
2023-05-11T14:21:45.806Z,100506.72
2023-05-11T14:24:18.727Z,100503.56
2023-05-11T14:26:51.657Z,100501.13
2023-05-11T14:29:24.644Z,100496.53
2023-05-11T14:31:58.869Z,100502.72
2023-05-11T14:34:31.763Z,100503.84
2023-05-11T14:37:04.772Z,100511.53
2023-05-11T14:39:37.688Z,100505.66
2023-05-11T14:42:11.609Z,100502.44
2023-05-11T14:44:44.594Z,100512.72
2023-05-11T14:47:18.868Z,100499.69
2023-05-11T14:49:51.776Z,100525.41
2023-05-11T14:52:24.661Z,100505.78
2023-05-11T14:54:57.609Z,100498.78
2023-05-11T14:57:30.536Z,100502.34
2023-05-11T15:00:03.624Z,100500.47
2023-05-11T15:02:38.179Z,100506.91
2023-05-11T15:05:11.524Z,100499.88
2023-05-11T15:07:44.352Z,100509.75
2023-05-11T15:10:19.769Z,100507.19
2023-05-11T15:12:52.796Z,100508.28
2023-05-11T15:15:25.908Z,100506.72
2023-05-11T15:18:00.158Z,100508.81
2023-05-11T15:20:34.616Z,100512.69
2023-05-11T15:23:08.958Z,100497.59
2023-05-11T15:25:41.837Z,100507.03
2023-05-11T15:28:15.251Z,100500.13
2023-05-11T15:30:49.340Z,100484.03
2023-05-11T15:33:24.326Z,100493.09
2023-05-11T15:35:57.139Z,100494.22
2023-05-11T15:38:31.003Z,100498.91
2023-05-11T15:41:04.481Z,100502.03
2023-05-11T15:43:37.172Z,100502.38
2023-05-11T15:46:10.065Z,100493.53
2023-05-11T15:48:44.401Z,100504.50
2023-05-11T15:51:17.369Z,100513.78
2023-05-11T15:53:50.216Z,100507.59
2023-05-11T15:56:23.654Z,100511.59
2023-05-11T15:58:56.350Z,100506.38
2023-05-11T16:01:29.298Z,100506.41
2023-05-11T16:04:03.728Z,100499.66
2023-05-11T16:06:36.837Z,100501.75
2023-05-11T16:09:10.463Z,100517.31
2023-05-11T16:11:43.596Z,100515.94
2023-05-11T16:14:16.646Z,100518.06
2023-05-11T16:16:52.588Z,100511.19
2023-05-11T16:19:27.175Z,100508.72
2023-05-11T16:22:00.057Z,100508.22
2023-05-11T16:24:34.504Z,100517.63
2023-05-11T16:27:07.762Z,100510.84
2023-05-11T16:29:40.986Z,100513.88
2023-05-11T16:32:14.385Z,100510.56
2023-05-11T16:34:48.461Z,100520.56
2023-05-11T16:37:21.113Z,100517.00
2023-05-11T16:39:54.004Z,100505.53
2023-05-11T16:42:26.891Z,100509.50
2023-05-11T16:45:00.129Z,100512.56
2023-05-11T16:47:33.121Z,100509.22
2023-05-11T16:50:08.303Z,100509.63
2023-05-11T16:52:42.267Z,100514.41
2023-05-11T16:55:16.131Z,100518.50
2023-05-11T16:57:49.162Z,100518.72
2023-05-11T17:00:22.430Z,100515.41
2023-05-11T17:02:55.570Z,100514.78
2023-05-11T17:05:30.260Z,100518.50
2023-05-11T17:08:03.355Z,100517.97
2023-05-11T17:10:36.669Z,100522.91
2023-05-11T17:13:09.562Z,100516.88
2023-05-11T17:15:43.014Z,100528.78
2023-05-11T17:18:15.941Z,100529.03
2023-05-11T17:20:54.547Z,100528.41
2023-05-11T17:23:27.508Z,100527.19
2023-05-11T17:26:00.387Z,100534.78
2023-05-11T17:28:33.325Z,100537.00
2023-05-11T17:31:10.088Z,100537.22
2023-05-11T17:33:43.700Z,100540.25
2023-05-11T17:36:18.678Z,100537.91
2023-05-11T17:38:52.087Z,100544.56
2023-05-11T17:41:25.029Z,100551.16
2023-05-11T17:43:58.020Z,100544.41
2023-05-11T17:46:31.212Z,100546.59
2023-05-11T17:49:04.296Z,100546.94
2023-05-11T17:51:38.615Z,100549.13
2023-05-11T17:54:11.871Z,100549.50
2023-05-11T17:56:44.767Z,100556.22
2023-05-11T17:59:19.769Z,100565.63
2023-05-11T18:01:54.006Z,100556.16
2023-05-11T18:04:27.219Z,100565.47
2023-05-11T18:07:01.639Z,100565.16
2023-05-11T18:09:34.531Z,100567.59
2023-05-11T18:12:08.845Z,100569.78
2023-05-11T18:14:49.337Z,100574.66
2023-05-11T18:17:22.354Z,100577.69
2023-05-11T18:19:55.328Z,100569.09
2023-05-11T18:22:30.871Z,100579.50
2023-05-11T18:25:03.790Z,100578.13
2023-05-11T18:27:36.753Z,100585.69
2023-05-11T18:30:10.754Z,100587.09
2023-05-11T18:32:43.710Z,100583.09
2023-05-11T18:35:17.024Z,100581.72
2023-05-11T18:37:51.661Z,100586.69
2023-05-11T18:40:24.603Z,100596.06
2023-05-11T18:42:57.621Z,100591.97
2023-05-11T18:45:30.817Z,100593.25
2023-05-11T18:48:03.892Z,100599.97
2023-05-11T18:50:36.929Z,100600.38
2023-05-11T18:53:11.095Z,100594.53
2023-05-11T18:55:52.622Z,100604.78
2023-05-11T18:58:26.401Z,100614.19
2023-05-11T19:01:02.014Z,100616.19
2023-05-11T19:03:35.438Z,100614.97
2023-05-11T19:06:09.094Z,100614.41
2023-05-11T19:08:43.217Z,100617.56
2023-05-11T19:11:16.568Z,100622.16
2023-05-11T19:13:50.464Z,100620.97
2023-05-11T19:16:23.480Z,100632.91
2023-05-11T19:18:56.888Z,100630.72
2023-05-11T19:21:29.911Z,100640.16
2023-05-11T19:24:04.200Z,100640.56
2023-05-11T19:26:38.385Z,100634.59
2023-05-11T19:29:12.244Z,100643.97
2023-05-11T19:31:45.266Z,100649.66
2023-05-11T19:34:18.327Z,100638.19
2023-05-11T19:36:51.666Z,100646.69
2023-05-11T19:39:27.800Z,100645.16
2023-05-11T19:42:01.294Z,100648.13
2023-05-11T19:44:36.576Z,100653.81
2023-05-11T19:47:09.555Z,100647.00
2023-05-11T19:49:42.664Z,100642.75
2023-05-11T19:52:15.871Z,100652.88
2023-05-11T19:54:50.288Z,100648.69
2023-05-11T19:57:26.396Z,100648.97
2023-05-11T20:00:00.450Z,100652.94
2023-05-11T20:02:33.754Z,100646.00
2023-05-11T20:05:08.057Z,100644.56
2023-05-11T20:07:41.035Z,100647.53
2023-05-11T20:10:15.340Z,100645.03
2023-05-11T20:12:48.314Z,100649.03
2023-05-11T20:15:23.313Z,100652.91
2023-05-11T20:17:58.473Z,100651.44
2023-05-11T20:20:33.632Z,100652.59
2023-05-11T20:23:06.515Z,100654.59
2023-05-11T20:25:43.879Z,100654.75
2023-05-11T20:28:16.844Z,100659.56
2023-05-11T20:30:50.095Z,100661.66
2023-05-11T20:35:59.091Z,100663.97
2023-05-11T20:38:32.657Z,100659.69
2023-05-11T20:41:07.684Z,100651.91
2023-05-11T20:43:40.508Z,100655.66
2023-05-11T20:46:15.212Z,100659.38
2023-05-11T20:48:51.792Z,100658.72
2023-05-11T20:51:25.193Z,100658.88
2023-05-11T20:53:58.181Z,100661.00
2023-05-11T20:56:32.388Z,100666.53
2023-05-11T20:59:05.364Z,100664.97
2023-05-11T21:01:39.413Z,100667.84
2023-05-11T21:04:12.354Z,100664.38
2023-05-11T21:06:46.520Z,100673.56
2023-05-11T21:09:19.409Z,100674.59
2023-05-11T21:11:53.711Z,100679.06
2023-05-11T21:14:26.623Z,100675.78
2023-05-11T21:16:59.660Z,100677.78
2023-05-11T21:19:32.577Z,100679.81
2023-05-11T21:22:05.589Z,100680.81
2023-05-11T21:24:38.685Z,100680.06
2023-05-11T21:27:12.928Z,100680.31
2023-05-11T21:29:45.884Z,100683.94
2023-05-11T21:32:18.745Z,100685.84
2023-05-11T21:34:51.612Z,100689.56
2023-05-11T21:37:24.508Z,100685.25
2023-05-11T21:39:57.425Z,100683.50
2023-05-11T21:42:34.716Z,100686.38
2023-05-11T21:45:08.977Z,100682.13
2023-05-11T21:47:42.122Z,100692.06
2023-05-11T21:50:14.988Z,100690.34
2023-05-11T21:52:47.920Z,100692.25
2023-05-11T21:55:20.953Z,100689.63
2023-05-11T21:57:55.226Z,100692.41
2023-05-11T22:00:28.328Z,100687.16
2023-05-11T22:03:01.533Z,100695.22
2023-05-11T22:05:34.456Z,100694.31
2023-05-11T22:08:14.933Z,100699.78
2023-05-11T22:10:57.431Z,100693.56
2023-05-11T22:13:31.652Z,100697.25
2023-05-11T22:16:05.357Z,100698.31
2023-05-11T22:18:38.324Z,100706.38
2023-05-11T22:21:11.684Z,100702.88
2023-05-11T22:23:44.587Z,100702.03
2023-05-11T22:26:17.471Z,100700.34
2023-05-11T22:28:52.363Z,100705.72
2023-05-11T22:31:26.803Z,100703.13
2023-05-11T22:34:00.314Z,100706.78
2023-05-11T22:36:33.199Z,100704.25
2023-05-11T22:39:06.675Z,100708.78
2023-05-11T22:41:39.681Z,100710.66
2023-05-11T22:44:13.865Z,100709.03
2023-05-11T22:46:46.708Z,100710.03
2023-05-11T22:49:19.545Z,100711.06
2023-05-11T22:51:52.659Z,100713.81
2023-05-11T22:54:26.334Z,100707.59
2023-05-11T22:56:59.030Z,100708.03
2023-05-11T22:59:34.639Z,100710.53
2023-05-11T23:02:07.566Z,100708.00
2023-05-11T23:04:40.519Z,100709.13
2023-05-11T23:07:13.414Z,100716.38
2023-05-11T23:09:46.458Z,100715.59
2023-05-11T23:12:19.456Z,100708.59
2023-05-11T23:14:53.658Z,100711.44
2023-05-11T23:17:26.715Z,100706.16
2023-05-11T23:19:59.762Z,100711.66
2023-05-11T23:22:32.762Z,100705.56
2023-05-11T23:25:06.082Z,100713.81
2023-05-11T23:27:38.971Z,100707.72
2023-05-11T23:30:13.843Z,100705.19
2023-05-11T23:32:46.792Z,100713.31
2023-05-11T23:35:19.674Z,100709.94
2023-05-11T23:37:52.542Z,100707.38
2023-05-11T23:40:26.149Z,100709.34
2023-05-11T23:42:59.228Z,100709.50
2023-05-11T23:45:33.548Z,100706.97
2023-05-11T23:48:07.365Z,100702.75
2023-05-11T23:50:40.268Z,100706.34
2023-05-11T23:53:13.253Z,100706.44
2023-05-11T23:55:47.991Z,100716.44
2023-05-11T23:58:20.847Z,100708.50
